createdAt,value
2024-03-16T00:01:56.871Z,99448.52
2024-03-16T00:04:47.523Z,99449.02
2024-03-16T00:07:37.739Z,99448.27
2024-03-16T00:10:27.984Z,99443.67
2024-03-16T00:13:18.113Z,99446.58
2024-03-16T00:16:07.914Z,99446.29
2024-03-16T00:18:57.806Z,99451.27
2024-03-16T00:21:47.740Z,99450.78
2024-03-16T00:24:37.382Z,99451.94
2024-03-16T00:27:27.545Z,99451.33
2024-03-16T00:30:17.193Z,99452.59
2024-03-16T00:33:08.764Z,99449.77
2024-03-16T00:35:58.688Z,99458.79
2024-03-16T00:38:51.405Z,99452.00
2024-03-16T00:41:44.715Z,99445.55
2024-03-16T00:44:34.581Z,99452.80
2024-03-16T00:47:24.941Z,99451.55
2024-03-16T00:50:16.190Z,99446.81
2024-03-16T00:53:06.169Z,99445.65
2024-03-16T00:55:56.669Z,99448.54
2024-03-16T00:58:47.063Z,99441.86
2024-03-16T01:01:37.582Z,99440.59
2024-03-16T01:04:28.778Z,99436.89
2024-03-16T01:07:18.668Z,99434.10
2024-03-16T01:10:09.027Z,99435.58
2024-03-16T01:12:59.710Z,99436.05
2024-03-16T01:15:49.753Z,99435.84
2024-03-16T01:18:41.906Z,99428.62
2024-03-16T01:21:31.577Z,99425.26
2024-03-16T01:24:20.913Z,99424.36
2024-03-16T01:27:10.910Z,99423.23
2024-03-16T01:30:01.601Z,99420.66
2024-03-16T01:32:52.054Z,99419.44
2024-03-16T01:35:41.983Z,99415.76
2024-03-16T01:38:31.972Z,99406.02
2024-03-16T01:41:21.639Z,99403.86
2024-03-16T01:44:14.187Z,99405.60
2024-03-16T01:47:04.889Z,99404.98
2024-03-16T01:49:54.979Z,99410.11
2024-03-16T01:52:44.455Z,99409.09
2024-03-16T01:55:35.037Z,99412.41
2024-03-16T01:58:25.549Z,99414.02
2024-03-16T02:01:16.059Z,99414.50
2024-03-16T02:04:06.610Z,99414.83
2024-03-16T02:06:56.453Z,99418.13
2024-03-16T02:09:46.143Z,99421.00
2024-03-16T02:12:36.538Z,99421.86
2024-03-16T02:15:26.831Z,99418.02
2024-03-16T02:18:17.383Z,99415.45
2024-03-16T02:21:13.233Z,99416.21
2024-03-16T02:24:03.410Z,99416.77
2024-03-16T02:26:53.088Z,99420.23
2024-03-16T02:29:43.638Z,99421.18
2024-03-16T02:32:33.268Z,99416.41
2024-03-16T02:35:24.439Z,99415.46
2024-03-16T02:38:15.062Z,99423.05
2024-03-16T02:41:04.837Z,99420.39
2024-03-16T02:43:54.417Z,99420.98
2024-03-16T02:46:44.807Z,99419.52
2024-03-16T02:49:34.383Z,99418.94
2024-03-16T02:52:24.783Z,99416.50
2024-03-16T02:55:15.173Z,99419.11
2024-03-16T02:58:06.562Z,99421.84
2024-03-16T03:00:57.169Z,99417.90
2024-03-16T03:03:47.308Z,99417.15
2024-03-16T03:06:37.195Z,99415.09
2024-03-16T03:09:27.488Z,99414.17
2024-03-16T03:12:18.251Z,99414.27
2024-03-16T03:15:08.242Z,99413.17
2024-03-16T03:17:58.177Z,99418.77
2024-03-16T03:20:48.430Z,99419.25
2024-03-16T03:23:38.192Z,99419.08
2024-03-16T03:26:30.718Z,99417.82
2024-03-16T03:29:21.543Z,99415.04
2024-03-16T03:32:11.031Z,99418.16
2024-03-16T03:35:01.511Z,99417.16
2024-03-16T03:37:51.392Z,99420.08
2024-03-16T03:40:43.831Z,99425.58
2024-03-16T03:43:34.944Z,99422.66
2024-03-16T03:46:41.308Z,99428.67
2024-03-16T03:49:34.538Z,99428.98
2024-03-16T03:52:23.872Z,99432.92
2024-03-16T03:55:13.574Z,99431.08
2024-03-16T03:58:04.507Z,99431.89
2024-03-16T04:00:54.862Z,99433.25
2024-03-16T04:03:44.746Z,99431.73
2024-03-16T04:06:34.930Z,99433.34
2024-03-16T04:09:24.570Z,99433.53
2024-03-16T04:12:14.243Z,99435.42
2024-03-16T04:15:05.251Z,99434.65
2024-03-16T04:17:55.477Z,99435.15
2024-03-16T04:20:45.327Z,99441.34
2024-03-16T04:23:35.654Z,99441.23
2024-03-16T04:26:25.310Z,99445.85
2024-03-16T04:29:15.200Z,99444.61
2024-03-16T04:32:05.470Z,99446.92
2024-03-16T04:34:55.765Z,99447.25
2024-03-16T04:37:46.364Z,99443.80
2024-03-16T04:40:36.973Z,99447.33
2024-03-16T04:43:26.539Z,99447.58
2024-03-16T04:46:17.239Z,99450.33
2024-03-16T04:49:08.639Z,99450.56
2024-03-16T04:51:58.674Z,99448.89
2024-03-16T04:54:48.941Z,99454.33
2024-03-16T04:57:39.548Z,99455.17
2024-03-16T05:00:29.793Z,99452.55
2024-03-16T05:03:20.226Z,99455.70
2024-03-16T05:06:09.793Z,99456.52
2024-03-16T05:08:59.883Z,99456.49
2024-03-16T05:11:49.662Z,99458.14
2024-03-16T05:14:39.542Z,99460.77
2024-03-16T05:17:30.272Z,99460.64
2024-03-16T05:20:20.626Z,99460.30
2024-03-16T05:23:11.234Z,99463.79
2024-03-16T05:26:01.141Z,99462.29
2024-03-16T05:28:51.381Z,99466.20
2024-03-16T05:31:41.606Z,99469.08
2024-03-16T05:34:31.072Z,99470.48
2024-03-16T05:37:20.960Z,99468.84
2024-03-16T05:40:11.799Z,99467.27
2024-03-16T05:43:01.785Z,99463.09
2024-03-16T05:45:52.704Z,99468.73
2024-03-16T05:48:42.488Z,99470.54
2024-03-16T05:51:32.670Z,99471.21
2024-03-16T05:54:22.291Z,99472.17
2024-03-16T05:57:11.982Z,99475.86
2024-03-16T06:00:01.986Z,99475.41
2024-03-16T06:03:02.389Z,99472.14
2024-03-16T06:05:53.006Z,99471.06
2024-03-16T06:08:42.656Z,99472.58
2024-03-16T06:11:32.593Z,99474.58
2024-03-16T06:14:22.324Z,99478.31
2024-03-16T06:17:12.415Z,99483.88
2024-03-16T06:20:05.569Z,99488.68
2024-03-16T06:22:57.201Z,99491.42
2024-03-16T06:25:52.208Z,99489.70
2024-03-16T06:28:44.587Z,99488.30
2024-03-16T06:31:36.980Z,99493.52
2024-03-16T06:34:26.553Z,99497.66
2024-03-16T06:37:18.524Z,99499.01
2024-03-16T06:40:08.713Z,99498.50
2024-03-16T06:42:58.443Z,99501.30
2024-03-16T06:45:48.878Z,99502.10
2024-03-16T06:48:38.947Z,99514.80
2024-03-16T06:51:28.867Z,99519.95
2024-03-16T06:54:18.601Z,99523.76
2024-03-16T06:57:08.381Z,99527.79
2024-03-16T06:59:58.157Z,99529.41
2024-03-16T07:02:47.935Z,99535.69
2024-03-16T07:05:38.874Z,99539.25
2024-03-16T07:08:28.823Z,99538.12
2024-03-16T07:11:20.456Z,99538.45
2024-03-16T07:14:10.128Z,99537.38
2024-03-16T07:17:00.124Z,99536.63
2024-03-16T07:19:50.511Z,99537.91
2024-03-16T07:22:40.174Z,99537.98
2024-03-16T07:25:30.278Z,99539.57
2024-03-16T07:28:20.326Z,99540.48
2024-03-16T07:31:10.104Z,99543.11
2024-03-16T07:34:03.030Z,99544.30
2024-03-16T07:36:53.750Z,99543.47
2024-03-16T07:39:43.287Z,99539.30
2024-03-16T07:42:33.224Z,99538.50
2024-03-16T07:45:23.159Z,99542.48
2024-03-16T07:48:12.434Z,99547.11
2024-03-16T07:51:02.503Z,99547.52
2024-03-16T07:53:52.267Z,99547.86
2024-03-16T07:56:41.839Z,99542.64
2024-03-16T07:59:31.207Z,99541.14
2024-03-16T08:02:21.387Z,99547.97
2024-03-16T08:05:12.671Z,99547.64
2024-03-16T08:08:03.319Z,99553.89
2024-03-16T08:10:56.169Z,99552.56
2024-03-16T08:13:46.875Z,99550.09
2024-03-16T08:16:36.752Z,99546.54
2024-03-16T08:19:26.128Z,99550.97
2024-03-16T08:22:15.865Z,99552.09
2024-03-16T08:25:07.550Z,99557.32
2024-03-16T08:27:58.606Z,99560.77
2024-03-16T08:30:48.649Z,99565.64
2024-03-16T08:33:38.873Z,99566.72
2024-03-16T08:36:29.159Z,99564.16
2024-03-16T08:39:19.948Z,99558.88
2024-03-16T08:42:09.873Z,99561.05
2024-03-16T08:44:59.577Z,99562.09
2024-03-16T08:47:49.678Z,99559.54
2024-03-16T08:50:39.954Z,99561.24
2024-03-16T08:53:29.420Z,99555.48
2024-03-16T08:56:19.622Z,99554.38
2024-03-16T08:59:09.394Z,99543.79
2024-03-16T09:02:00.945Z,99544.95
2024-03-16T09:04:57.881Z,99543.52
2024-03-16T09:07:47.542Z,99542.18
2024-03-16T09:10:37.733Z,99540.17
2024-03-16T09:13:27.519Z,99545.33
2024-03-16T09:16:17.832Z,99546.92
2024-03-16T09:19:08.720Z,99543.09
2024-03-16T09:21:58.387Z,99541.42
2024-03-16T09:24:49.027Z,99542.40
2024-03-16T09:27:39.092Z,99538.20
2024-03-16T09:30:29.047Z,99536.77
2024-03-16T09:33:19.240Z,99540.84
2024-03-16T09:36:08.911Z,99536.42
2024-03-16T09:38:59.511Z,99532.91
2024-03-16T09:41:49.601Z,99530.59
2024-03-16T09:44:39.587Z,99533.33
2024-03-16T09:47:29.678Z,99535.78
2024-03-16T09:50:20.736Z,99537.52
2024-03-16T09:53:11.491Z,99542.79
2024-03-16T09:56:05.817Z,99545.48
2024-03-16T09:58:58.134Z,99550.45
2024-03-16T10:01:49.243Z,99549.35
2024-03-16T10:04:41.781Z,99552.18
2024-03-16T10:07:33.395Z,99552.25
2024-03-16T10:10:23.170Z,99546.70
2024-03-16T10:13:13.491Z,99545.53
2024-03-16T10:16:03.523Z,99539.96
2024-03-16T10:18:55.807Z,99540.98
2024-03-16T10:21:47.535Z,99541.02
2024-03-16T10:24:37.399Z,99535.81
2024-03-16T10:27:26.983Z,99542.36
2024-03-16T10:30:17.867Z,99541.42
2024-03-16T10:33:07.859Z,99544.30
2024-03-16T10:35:57.845Z,99541.66
2024-03-16T10:38:51.734Z,99541.08
2024-03-16T10:41:41.915Z,99540.09
2024-03-16T10:44:32.001Z,99539.02
2024-03-16T10:47:22.182Z,99536.89
2024-03-16T10:50:12.172Z,99543.89
2024-03-16T10:53:04.107Z,99539.63
2024-03-16T10:55:54.254Z,99542.02
2024-03-16T10:58:44.073Z,99538.20
2024-03-16T11:01:34.151Z,99547.51
2024-03-16T11:04:24.350Z,99548.35
2024-03-16T11:07:15.595Z,99547.77
2024-03-16T11:10:04.932Z,99549.90
2024-03-16T11:13:14.528Z,99551.63
2024-03-16T11:16:37.052Z,99554.59
2024-03-16T11:19:26.600Z,99552.59
2024-03-16T11:22:15.964Z,99548.88
2024-03-16T11:25:19.810Z,99547.35
2024-03-16T11:28:09.565Z,99547.13
2024-03-16T11:30:59.577Z,99546.44
2024-03-16T11:33:51.518Z,99545.45
2024-03-16T11:36:54.973Z,99547.08
2024-03-16T11:39:45.624Z,99542.59
2024-03-16T11:42:38.145Z,99539.85
2024-03-16T11:45:28.202Z,99540.62
2024-03-16T11:48:17.992Z,99536.66
2024-03-16T11:51:11.143Z,99537.73
2024-03-16T11:54:02.362Z,99534.48
2024-03-16T11:56:52.138Z,99533.95
2024-03-16T11:59:41.617Z,99530.78
2024-03-16T12:02:31.657Z,99533.84
2024-03-16T12:05:21.285Z,99533.28
2024-03-16T12:08:12.174Z,99529.33
2024-03-16T12:11:02.878Z,99526.76
2024-03-16T12:14:02.402Z,99526.11
2024-03-16T12:16:51.960Z,99522.56
2024-03-16T12:19:42.052Z,99520.29
2024-03-16T12:22:32.548Z,99515.24
2024-03-16T12:25:26.614Z,99514.86
2024-03-16T12:28:18.181Z,99516.89
2024-03-16T12:31:08.359Z,99519.26
2024-03-16T12:33:58.330Z,99520.82
2024-03-16T12:36:49.392Z,99524.18
2024-03-16T12:39:38.818Z,99522.77
2024-03-16T12:42:28.886Z,99515.73
2024-03-16T12:45:19.781Z,99513.25
2024-03-16T12:48:09.563Z,99512.16
2024-03-16T12:50:59.450Z,99509.66
2024-03-16T12:53:49.231Z,99506.50
2024-03-16T12:56:42.389Z,99507.77
2024-03-16T12:59:37.082Z,99508.45
2024-03-16T13:02:29.650Z,99510.23
2024-03-16T13:05:19.418Z,99509.24
2024-03-16T13:08:11.764Z,99511.39
2024-03-16T13:11:03.320Z,99509.26
2024-03-16T13:13:53.667Z,99510.27
2024-03-16T13:16:43.034Z,99509.31
2024-03-16T13:19:33.699Z,99506.09
2024-03-16T13:22:24.095Z,99499.95
2024-03-16T13:25:14.073Z,99500.90
2024-03-16T13:28:04.474Z,99504.84
2024-03-16T13:30:54.189Z,99500.50
2024-03-16T13:33:44.177Z,99502.48
2024-03-16T13:36:33.949Z,99503.18
2024-03-16T13:39:26.411Z,99506.08
2024-03-16T13:42:15.659Z,99503.96
2024-03-16T13:45:05.745Z,99504.48
2024-03-16T13:47:59.727Z,99500.61
2024-03-16T13:50:49.917Z,99499.64
2024-03-16T13:53:40.681Z,99499.89
2024-03-16T13:56:33.123Z,99494.10
2024-03-16T13:59:22.425Z,99495.64
2024-03-16T14:02:15.491Z,99488.48
2024-03-16T14:05:07.736Z,99479.59
2024-03-16T14:07:56.992Z,99474.12
2024-03-16T14:10:47.100Z,99476.33
2024-03-16T14:13:37.664Z,99475.77
2024-03-16T14:16:28.484Z,99476.70
2024-03-16T14:19:18.358Z,99474.86
2024-03-16T14:22:07.736Z,99473.38
2024-03-16T14:24:57.103Z,99473.41
2024-03-16T14:27:47.724Z,99478.13
2024-03-16T14:30:37.380Z,99476.67
2024-03-16T14:33:27.379Z,99474.50
2024-03-16T14:36:19.331Z,99474.68
2024-03-16T14:39:10.302Z,99470.80
2024-03-16T14:41:59.806Z,99473.02
2024-03-16T14:44:50.512Z,99465.85
2024-03-16T14:47:40.783Z,99464.21
2024-03-16T14:50:30.750Z,99469.02
2024-03-16T14:53:20.601Z,99472.36
2024-03-16T14:56:10.213Z,99470.83
2024-03-16T14:58:59.911Z,99468.40
2024-03-16T15:01:50.176Z,99466.30
2024-03-16T15:04:40.269Z,99471.08
2024-03-16T15:07:33.026Z,99466.10
2024-03-16T15:10:22.877Z,99471.59
2024-03-16T15:13:12.588Z,99467.48
2024-03-16T15:16:02.459Z,99472.66
2024-03-16T15:18:52.439Z,99482.45
2024-03-16T15:21:42.494Z,99487.98
2024-03-16T15:24:32.778Z,99494.23
2024-03-16T15:27:54.588Z,99495.98
2024-03-16T15:30:44.539Z,99500.42
2024-03-16T15:33:34.421Z,99500.80
2024-03-16T15:36:24.459Z,99499.80
2024-03-16T15:39:14.498Z,99499.94
2024-03-16T15:42:05.431Z,99498.15
2024-03-16T15:44:58.602Z,99499.42
2024-03-16T15:47:48.132Z,99499.84
2024-03-16T15:50:37.924Z,99502.15
2024-03-16T15:53:30.152Z,99502.41
2024-03-16T15:56:19.635Z,99502.87
2024-03-16T15:59:09.608Z,99505.79
2024-03-16T16:01:59.595Z,99509.33
2024-03-16T16:04:50.623Z,99512.49
2024-03-16T16:07:41.839Z,99510.30
2024-03-16T16:10:32.199Z,99516.59
2024-03-16T16:13:26.613Z,99520.33
2024-03-16T16:16:17.194Z,99522.05
2024-03-16T16:19:07.490Z,99523.08
2024-03-16T16:21:57.056Z,99526.11
2024-03-16T16:24:50.758Z,99526.34
2024-03-16T16:27:41.753Z,99523.66
2024-03-16T16:30:31.543Z,99528.04
2024-03-16T16:33:22.935Z,99531.21
2024-03-16T16:36:13.336Z,99535.66
2024-03-16T16:39:02.908Z,99543.38
2024-03-16T16:41:52.686Z,99546.48
2024-03-16T16:44:42.476Z,99549.55
2024-03-16T16:47:32.376Z,99552.42
2024-03-16T16:50:22.234Z,99555.65
2024-03-16T16:53:12.313Z,99556.80
2024-03-16T16:56:02.960Z,99566.34
2024-03-16T16:58:53.419Z,99573.50
2024-03-16T17:01:43.090Z,99576.76
2024-03-16T17:04:34.092Z,99579.84
2024-03-16T17:07:24.285Z,99586.32
2024-03-16T17:10:13.650Z,99593.23
2024-03-16T17:13:03.329Z,99598.02
2024-03-16T17:15:53.012Z,99598.48
2024-03-16T17:18:42.583Z,99601.27
2024-03-16T17:21:32.980Z,99608.52
2024-03-16T17:24:23.653Z,99615.71
2024-03-16T17:27:19.279Z,99620.22
2024-03-16T17:30:12.465Z,99616.73
2024-03-16T17:33:02.447Z,99619.67
2024-03-16T17:35:52.632Z,99624.64
2024-03-16T17:38:43.128Z,99629.54
2024-03-16T17:41:33.014Z,99631.67
2024-03-16T17:44:23.613Z,99633.13
2024-03-16T17:47:13.734Z,99637.88
2024-03-16T17:50:03.576Z,99639.58
2024-03-16T17:52:53.391Z,99643.88
2024-03-16T17:55:43.245Z,99646.61
2024-03-16T17:58:33.247Z,99649.88
2024-03-16T18:01:22.705Z,99650.42
2024-03-16T18:04:12.483Z,99651.52
2024-03-16T18:07:02.869Z,99651.94
2024-03-16T18:09:52.266Z,99654.45
2024-03-16T18:12:42.231Z,99656.92
2024-03-16T18:15:32.927Z,99656.98
2024-03-16T18:18:22.715Z,99656.06
2024-03-16T18:21:12.082Z,99658.45
2024-03-16T18:24:02.884Z,99661.60
2024-03-16T18:26:52.973Z,99662.48
2024-03-16T18:29:42.679Z,99664.20
2024-03-16T18:32:34.117Z,99664.67
2024-03-16T18:35:27.094Z,99672.74
2024-03-16T18:38:16.695Z,99678.38
2024-03-16T18:41:08.425Z,99685.79
2024-03-16T18:43:59.941Z,99692.81
2024-03-16T18:46:50.138Z,99690.04
2024-03-16T18:49:40.215Z,99690.52
2024-03-16T18:52:30.508Z,99694.91
2024-03-16T18:55:20.293Z,99701.16
2024-03-16T18:58:09.869Z,99704.14
2024-03-16T19:01:03.030Z,99709.40
2024-03-16T19:03:53.030Z,99711.41
2024-03-16T19:06:43.300Z,99715.97
2024-03-16T19:09:32.782Z,99721.48
2024-03-16T19:12:22.346Z,99727.21
2024-03-16T19:15:12.972Z,99732.91
2024-03-16T19:18:03.171Z,99733.34
2024-03-16T19:20:52.713Z,99741.27
2024-03-16T19:23:42.594Z,99744.79
2024-03-16T19:26:32.064Z,99745.59
2024-03-16T19:29:22.049Z,99752.98
2024-03-16T19:32:11.424Z,99755.20
2024-03-16T19:35:01.517Z,99760.23
2024-03-16T19:37:53.257Z,99765.66
2024-03-16T19:40:43.424Z,99769.41
2024-03-16T19:43:33.000Z,99771.81
2024-03-16T19:46:23.604Z,99773.32
2024-03-16T19:49:13.869Z,99773.06
2024-03-16T19:52:03.570Z,99778.63
2024-03-16T19:54:53.255Z,99780.32
2024-03-16T19:57:44.151Z,99780.09
2024-03-16T20:00:34.244Z,99792.99
2024-03-16T20:03:26.382Z,99804.08
2024-03-16T20:06:16.161Z,99805.80
2024-03-16T20:09:10.641Z,99806.84
2024-03-16T20:12:06.160Z,99814.05
2024-03-16T20:14:56.755Z,99816.27
2024-03-16T20:17:46.646Z,99821.12
2024-03-16T20:20:37.862Z,99822.55
2024-03-16T20:23:29.270Z,99833.21
2024-03-16T20:26:19.050Z,99836.34
2024-03-16T20:29:09.904Z,99838.67
2024-03-16T20:31:59.532Z,99845.61
2024-03-16T20:34:49.414Z,99847.23
2024-03-16T20:37:39.086Z,99854.36
2024-03-16T20:40:30.113Z,99862.59
2024-03-16T20:43:20.506Z,99866.61
2024-03-16T20:46:10.376Z,99873.02
2024-03-16T20:48:59.949Z,99875.79
2024-03-16T20:51:49.833Z,99879.59
2024-03-16T20:54:39.924Z,99886.02
2024-03-16T20:57:31.141Z,99884.45
2024-03-16T21:00:22.141Z,99886.36
2024-03-16T21:03:12.951Z,99889.11
2024-03-16T21:06:02.631Z,99889.23
2024-03-16T21:08:52.508Z,99894.41
2024-03-16T21:11:42.256Z,99898.20
2024-03-16T21:14:32.682Z,99906.09
2024-03-16T21:17:23.275Z,99915.27
2024-03-16T21:20:13.172Z,99926.54
2024-03-16T21:23:02.838Z,99932.17
2024-03-16T21:25:52.725Z,99935.50
2024-03-16T21:28:42.539Z,99939.59
2024-03-16T21:31:32.489Z,99939.16
2024-03-16T21:34:22.259Z,99938.84
2024-03-16T21:37:13.942Z,99941.52
2024-03-16T21:40:03.668Z,99945.33
2024-03-16T21:42:53.466Z,99951.60
2024-03-16T21:45:43.233Z,99953.06
2024-03-16T21:48:33.019Z,99964.41
2024-03-16T21:51:23.227Z,99970.09
2024-03-16T21:54:13.404Z,99976.38
2024-03-16T21:57:04.765Z,99978.14
2024-03-16T21:59:54.066Z,99985.27
2024-03-16T22:02:44.576Z,99991.84
2024-03-16T22:05:35.288Z,99998.27
2024-03-16T22:08:24.640Z,100004.07
2024-03-16T22:11:15.382Z,100009.39
2024-03-16T22:14:05.839Z,100011.61
2024-03-16T22:16:55.413Z,100013.42
2024-03-16T22:19:45.090Z,100014.46
2024-03-16T22:22:34.982Z,100018.12
2024-03-16T22:25:26.347Z,100021.67
2024-03-16T22:28:16.071Z,100022.10
2024-03-16T22:31:05.950Z,100022.80
2024-03-16T22:33:56.554Z,100021.19
2024-03-16T22:36:46.230Z,100023.38
2024-03-16T22:39:36.113Z,100030.23
2024-03-16T22:42:26.613Z,100031.88
2024-03-16T22:45:18.156Z,100037.84
2024-03-16T22:48:08.320Z,100044.12
2024-03-16T22:50:57.486Z,100050.23
2024-03-16T22:53:47.375Z,100059.36
2024-03-16T22:56:38.164Z,100057.08
2024-03-16T22:59:27.846Z,100063.11
2024-03-16T23:02:17.525Z,100066.44
2024-03-16T23:05:08.228Z,100076.13
2024-03-16T23:08:00.184Z,100078.08
2024-03-16T23:10:49.829Z,100083.59
2024-03-16T23:13:39.613Z,100089.33
2024-03-16T23:16:30.053Z,100090.89
2024-03-16T23:19:19.783Z,100099.00
2024-03-16T23:22:09.161Z,100104.10
2024-03-16T23:24:59.095Z,100104.30
2024-03-16T23:27:49.443Z,100112.23
2024-03-16T23:30:39.221Z,100119.83
2024-03-16T23:33:30.030Z,100120.30
2024-03-16T23:36:20.003Z,100126.65
2024-03-16T23:39:12.031Z,100126.95
2024-03-16T23:42:01.917Z,100124.16
2024-03-16T23:44:51.900Z,100128.96
2024-03-16T23:47:43.938Z,100133.35
2024-03-16T23:50:34.544Z,100134.71
2024-03-16T23:53:24.414Z,100131.13
2024-03-16T23:56:13.894Z,100133.27
2024-03-16T23:59:04.091Z,100137.28
